Time;durP1;ratioP1;P1;durP2;ratioP2;P2;SDS_P1;SDS_P2;PMS_P1;PMS_P2;Temp;Humidity;BMP_temperature;BMP_pressure;BME280_temperature;BME280_humidity;BME280_pressure;Samples;Min_cycle;Max_cycle;Signal;HPM_P1;HPM_P2
2023/07/29 00:00:39;;;;;;;;;6.80;6.20;;;;;23.34;100.00;98154.94;6256743;27;97097;-72
2023/07/29 00:03:43;;;;;;;;;8.60;8.60;;;;;23.33;100.00;98148.59;6258265;27;96418;-72
2023/07/29 00:06:47;;;;;;;;;6.00;6.00;;;;;23.36;100.00;98149.88;6258146;27;96642;-72
2023/07/29 00:09:50;;;;;;;;;6.00;5.00;;;;;23.41;100.00;98154.47;6251445;27;98607;-72
2023/07/29 00:12:53;;;;;;;;;7.50;7.50;;;;;23.25;100.00;98123.84;6272065;27;96343;-71
2023/07/29 00:15:56;;;;;;;;;8.60;8.00;;;;;23.40;100.00;98148.13;6255535;27;96611;-72
2023/07/29 00:19:01;;;;;;;;;8.40;8.40;;;;;23.39;100.00;98154.75;6275702;27;96350;-71
2023/07/29 00:22:05;;;;;;;;;5.60;5.00;;;;;23.35;100.00;98150.25;6262643;27;96653;-71
2023/07/29 00:25:09;;;;;;;;;7.40;7.40;;;;;23.29;100.00;98150.38;6264939;27;99038;-72
2023/07/29 00:28:12;;;;;;;;;7.00;6.60;;;;;23.23;100.00;98150.88;6272459;27;96385;-72
2023/07/29 00:31:16;;;;;;;;;5.40;5.40;;;;;23.19;100.00;98147.13;6274493;27;96311;-72
2023/07/29 00:34:20;;;;;;;;;8.00;8.00;;;;;23.17;100.00;98147.44;6271577;27;96450;-72
2023/07/29 00:37:23;;;;;;;;;7.80;7.80;;;;;23.13;100.00;98140.97;6241430;27;97101;-72
2023/07/29 00:40:29;;;;;;;;;6.00;6.00;;;;;23.11;100.00;98142.44;6265555;27;96583;-72
2023/07/29 00:43:33;;;;;;;;;8.60;7.60;;;;;23.05;100.00;98140.97;6267787;27;96328;-72
2023/07/29 00:46:41;;;;;;;;;5.60;5.60;;;;;23.03;100.00;98145.97;6267818;27;96404;-72
2023/07/29 00:49:46;;;;;;;;;7.60;7.00;;;;;22.98;100.00;98149.69;6270685;27;96290;-72
2023/07/29 00:52:50;;;;;;;;;9.00;8.00;;;;;23.02;100.00;98147.13;6265275;27;96356;-71
2023/07/29 00:55:53;;;;;;;;;9.00;8.20;;;;;23.00;100.00;98152.13;6270949;27;96368;-74
2023/07/29 00:59:01;;;;;;;;;7.00;7.00;;;;;22.97;100.00;98141.78;6259508;27;98375;-74
2023/07/29 01:02:05;;;;;;;;;8.67;8.00;;;;;22.74;100.00;98117.13;6275315;27;96402;-73
2023/07/29 01:05:13;;;;;;;;;7.50;7.50;;;;;22.94;100.00;98158.91;6258065;27;98575;-73
2023/07/29 01:08:26;;;;;;;;;8.00;8.00;;;;;22.94;100.00;98161.66;6276608;27;96344;-72
2023/07/29 01:11:39;;;;;;;;;8.00;7.50;;;;;22.93;100.00;98158.09;6274682;27;96380;-72
2023/07/29 01:14:49;;;;;;;;;8.50;8.50;;;;;22.76;100.00;98136.06;6273670;27;96151;-72
2023/07/29 01:17:57;;;;;;;;;7.00;7.00;;;;;22.70;100.00;98131.81;6268337;27;96898;-72
2023/07/29 01:21:06;;;;;;;;;7.00;7.00;;;;;22.81;100.00;98155.16;6234489;28;98505;-72
2023/07/29 01:24:10;;;;;;;;;8.00;8.00;;;;;22.76;100.00;98158.88;6267694;27;96797;-72
2023/07/29 01:27:14;;;;;;;;;9.60;9.60;;;;;22.67;100.00;98157.19;6252870;28;96266;-72
2023/07/29 01:30:18;;;;;;;;;7.80;7.00;;;;;22.46;100.00;98126.72;6254423;27;96920;-72
2023/07/29 01:33:27;;;;;;;;;8.40;7.40;;;;;22.61;100.00;98151.00;6275480;27;96963;-72
2023/07/29 01:36:35;;;;;;;;;10.00;9.75;;;;;22.53;100.00;98151.78;6257176;27;97226;-72
2023/07/29 01:39:40;;;;;;;;;7.00;7.00;;;;;22.54;100.00;98163.56;6251476;27;96983;-72
2023/07/29 01:42:45;;;;;;;;;6.00;6.00;;;;;22.51;100.00;98162.28;6266395;27;99512;-72
2023/07/29 01:45:48;;;;;;;;;6.00;6.00;;;;;22.46;100.00;98165.97;6272359;27;96333;-72
2023/07/29 01:48:52;;;;;;;;;9.20;9.20;;;;;22.40;100.00;98164.50;6249381;28;96559;-72
2023/07/29 01:51:55;;;;;;;;;10.80;9.80;;;;;22.38;100.00;98163.22;6244482;27;97701;-72
2023/07/29 01:55:00;;;;;;;;;10.50;9.00;;;;;22.33;100.00;98166.09;6243824;28;96326;-71
2023/07/29 01:58:03;;;;;;;;;9.00;9.00;;;;;22.30;100.00;98163.94;6251406;27;96312;-71
2023/07/29 02:01:09;;;;;;;;;8.00;8.00;;;;;22.21;100.00;98146.63;6262363;27;96561;-71
2023/07/29 02:04:13;;;;;;;;;8.60;8.00;;;;;22.28;100.00;98164.28;6268362;27;96329;-71
2023/07/29 02:07:16;;;;;;;;;10.00;9.00;;;;;22.29;100.00;98156.84;6262740;27;96370;-73
2023/07/29 02:10:20;;;;;;;;;10.00;10.00;;;;;22.30;100.00;98153.78;6245329;27;98633;-73
2023/07/29 02:13:24;;;;;;;;;9.00;8.00;;;;;22.26;100.00;98158.28;6245682;27;96491;-73
2023/07/29 02:16:27;;;;;;;;;8.00;7.00;;;;;22.10;100.00;98129.63;6255023;27;96381;-74
2023/07/29 02:19:31;;;;;;;;;7.00;6.00;;;;;22.29;100.00;98154.91;6269896;27;96441;-74
2023/07/29 02:22:34;;;;;;;;;7.00;7.00;;;;;22.33;100.00;98153.13;6265023;27;96517;-74
2023/07/29 02:25:38;;;;;;;;;5.00;5.00;;;;;22.40;100.00;98155.44;6266666;27;97429;-73
2023/07/29 02:28:41;;;;;;;;;6.00;5.60;;;;;22.41;100.00;98151.56;6237528;27;97818;-73
2023/07/29 02:31:45;;;;;;;;;6.00;6.00;;;;;22.36;100.00;98159.94;6239179;28;96856;-73
2023/07/29 02:34:49;;;;;;;;;6.20;6.00;;;;;22.41;100.00;98160.63;6237276;27;98575;-73
2023/07/29 02:37:53;;;;;;;;;6.60;6.00;;;;;22.38;100.00;98149.47;6248121;27;98760;-73
2023/07/29 02:40:59;;;;;;;;;8.00;7.00;;;;;22.48;100.00;98149.16;6246670;27;96882;-73
2023/07/29 02:44:02;;;;;;;;;7.40;6.00;;;;;22.61;100.00;98161.19;6251751;27;96756;-73
2023/07/29 02:47:06;;;;;;;;;7.50;7.00;;;;;22.67;100.00;98165.44;6270359;27;98986;-73
2023/07/29 02:50:09;;;;;;;;;6.00;5.00;;;;;22.67;100.00;98157.19;6254418;27;96938;-73
2023/07/29 02:53:13;;;;;;;;;6.80;6.20;;;;;22.72;100.00;98165.31;6240110;27;98548;-73
2023/07/29 02:56:17;;;;;;;;;6.00;5.25;;;;;22.77;100.00;98170.66;6246459;27;98947;-73
2023/07/29 02:59:21;;;;;;;;;5.75;5.00;;;;;22.83;100.00;98166.63;6269631;27;96628;-74
2023/07/29 03:02:24;;;;;;;;;8.00;6.00;;;;;22.84;100.00;98149.81;6250447;27;96561;-74
2023/07/29 03:05:28;;;;;;;;;5.60;5.60;;;;;22.95;100.00;98160.53;6261496;27;96328;-73
2023/07/29 03:08:31;;;;;;;;;5.20;5.00;;;;;22.95;100.00;98164.09;6258422;27;96413;-73
2023/07/29 03:11:36;;;;;;;;;7.00;6.00;;;;;22.95;100.00;98161.34;6264129;27;96326;-74
2023/07/29 03:14:41;;;;;;;;;5.00;3.75;;;;;23.03;100.00;98173.47;6269402;27;96374;-73
2023/07/29 03:17:44;;;;;;;;;8.40;7.00;;;;;23.12;100.00;98179.78;6269738;27;96364;-74
2023/07/29 03:20:49;;;;;;;;;5.00;4.00;;;;;23.17;100.00;98185.94;6251495;27;98942;-73
2023/07/29 03:23:53;;;;;;;;;6.00;5.00;;;;;23.17;100.00;98194.19;6264627;27;97105;-71
2023/07/29 03:26:58;;;;;;;;;5.40;5.40;;;;;23.20;100.00;98199.06;6244284;27;96531;-72
2023/07/29 03:30:01;;;;;;;;;5.80;5.80;;;;;23.21;100.00;98199.88;6257067;27;96510;-74
2023/07/29 03:33:05;;;;;;;;;6.00;5.50;;;;;23.16;100.00;98195.34;6258865;27;96456;-73
2023/07/29 03:36:09;;;;;;;;;8.00;7.00;;;;;23.21;100.00;98197.91;6224183;27;96666;-73
2023/07/29 03:39:12;;;;;;;;;7.80;6.20;;;;;23.17;100.00;98205.19;6256549;27;96590;-72
2023/07/29 03:42:17;;;;;;;;;6.80;6.80;;;;;23.12;100.00;98196.28;6253474;27;98467;-72
2023/07/29 03:45:20;;;;;;;;;6.00;5.00;;;;;23.11;100.00;98205.69;6241967;27;96352;-72
2023/07/29 03:48:23;;;;;;;;;5.20;5.20;;;;;23.06;100.00;98203.91;6268240;27;96368;-72
2023/07/29 03:51:26;;;;;;;;;7.00;7.00;;;;;22.99;100.00;98203.53;6261009;27;96471;-72
2023/07/29 03:54:30;;;;;;;;;5.00;5.00;;;;;22.95;100.00;98194.31;6261054;27;96356;-72
2023/07/29 03:57:34;;;;;;;;;6.60;5.60;;;;;22.95;100.00;98201.75;6257386;27;96695;-72
2023/07/29 04:00:38;;;;;;;;;6.00;5.40;;;;;22.80;100.00;98187.31;6226576;27;99049;-72
2023/07/29 04:03:42;;;;;;;;;7.00;7.00;;;;;22.71;100.00;98197.47;6246605;27;98443;-72
2023/07/29 04:06:45;;;;;;;;;6.80;5.80;;;;;22.75;100.00;98203.13;6265903;27;96579;-72
2023/07/29 04:09:49;;;;;;;;;7.80;7.00;;;;;22.72;100.00;98206.53;6242279;28;98721;-71
2023/07/29 04:12:53;;;;;;;;;8.00;7.00;;;;;22.61;100.00;98186.72;6238269;27;96841;-73
2023/07/29 04:15:57;;;;;;;;;8.00;8.00;;;;;22.83;100.00;98208.66;6233317;27;98459;-74
2023/07/29 04:19:00;;;;;;;;;6.60;6.00;;;;;22.88;100.00;98215.94;6257439;27;98455;-72
2023/07/29 04:22:04;;;;;;;;;8.60;7.60;;;;;22.93;100.00;98212.25;6236440;27;96807;-74
2023/07/29 04:25:08;;;;;;;;;7.00;7.00;;;;;22.98;100.00;98207.41;6258006;27;97119;-72
2023/07/29 04:28:13;;;;;;;;;9.00;8.00;;;;;23.02;100.00;98200.16;6243533;27;97319;-72
2023/07/29 04:31:16;;;;;;;;;7.00;7.00;;;;;23.08;100.00;98207.13;6258336;27;96339;-72
2023/07/29 04:34:20;;;;;;;;;7.00;7.00;;;;;22.82;100.00;98154.81;6260758;27;96552;-72
2023/07/29 04:37:23;;;;;;;;;7.00;6.00;;;;;23.25;100.00;98215.44;6261112;27;96647;-72
2023/07/29 04:40:26;;;;;;;;;7.00;6.75;;;;;23.17;100.00;98210.69;6263167;27;96457;-72
2023/07/29 04:43:32;;;;;;;;;6.00;6.00;;;;;23.33;100.00;98209.13;6257162;27;96356;-73
2023/07/29 04:46:38;;;;;;;;;7.50;7.00;;;;;23.47;100.00;98225.50;6251455;27;96278;-73
2023/07/29 04:49:41;;;;;;;;;6.00;5.00;;;;;23.57;100.00;98230.69;6252416;27;96312;-72
2023/07/29 04:52:44;;;;;;;;;6.00;5.00;;;;;23.67;100.00;98230.38;6238941;27;99222;-72
2023/07/29 04:55:48;;;;;;;;;7.20;7.00;;;;;23.83;100.00;98232.66;6253450;27;96392;-73
2023/07/29 04:58:53;;;;;;;;;8.00;7.00;;;;;23.92;100.00;98233.47;6234014;27;98389;-72
2023/07/29 05:01:56;;;;;;;;;7.00;7.00;;;;;24.05;100.00;98232.47;6257290;27;96745;-73
2023/07/29 05:05:00;;;;;;;;;9.40;8.00;;;;;24.16;100.00;98234.63;6244473;27;96535;-73
2023/07/29 05:08:04;;;;;;;;;7.60;7.00;;;;;24.26;100.00;98235.41;6249408;27;97054;-73
2023/07/29 05:11:07;;;;;;;;;9.00;7.40;;;;;24.37;100.00;98240.25;6243248;27;96878;-73
2023/07/29 05:14:12;;;;;;;;;7.00;7.00;;;;;24.64;100.00;98243.75;6256195;27;96424;-73
2023/07/29 05:17:15;;;;;;;;;7.20;6.20;;;;;24.84;100.00;98232.00;6252552;27;96408;-73
2023/07/29 05:20:18;;;;;;;;;6.40;6.40;;;;;24.97;100.00;98247.56;6264722;27;96503;-73
2023/07/29 05:23:21;;;;;;;;;4.60;4.60;;;;;25.10;100.00;98240.19;6262399;27;96619;-74
2023/07/29 05:26:25;;;;;;;;;5.40;5.00;;;;;25.21;100.00;98247.75;6266983;27;96416;-72
2023/07/29 05:29:29;;;;;;;;;5.00;4.67;;;;;25.13;100.00;98231.22;6265012;27;96781;-73
2023/07/29 05:32:33;;;;;;;;;4.00;4.00;;;;;25.36;100.00;98233.38;6269736;27;96368;-73
2023/07/29 05:35:36;;;;;;;;;6.00;6.00;;;;;25.66;100.00;98241.66;6272644;27;96797;-72
2023/07/29 05:38:40;;;;;;;;;6.00;5.80;;;;;25.65;100.00;98229.81;6261801;27;96209;-72
2023/07/29 05:41:43;;;;;;;;;5.00;5.00;;;;;25.91;100.00;98248.13;6272111;27;96312;-73
2023/07/29 05:44:47;;;;;;;;;5.40;5.40;;;;;26.03;100.00;98250.94;6271774;27;96355;-73
2023/07/29 05:47:50;;;;;;;;;5.00;4.00;;;;;26.08;100.00;98248.78;6271915;27;96666;-73
2023/07/29 05:50:54;;;;;;;;;5.00;4.00;;;;;26.03;100.00;98234.38;6269104;27;96295;-73
2023/07/29 05:53:57;;;;;;;;;6.00;5.00;;;;;26.19;100.00;98252.72;6265236;27;96525;-73
2023/07/29 05:57:00;;;;;;;;;7.00;6.00;;;;;26.24;100.00;98254.53;6253199;27;96317;-73
2023/07/29 06:00:06;;;;;;;;;6.00;5.60;;;;;26.27;100.00;98259.38;6265088;27;96962;-73
2023/07/29 06:03:15;;;;;;;;;6.00;5.00;;;;;26.28;100.00;98261.81;6256571;27;96514;-72
2023/07/29 06:06:19;;;;;;;;;6.50;5.75;;;;;26.50;100.00;98268.06;6259386;27;96408;-72
2023/07/29 06:09:23;;;;;;;;;8.20;5.00;;;;;26.63;100.00;98262.25;6256045;27;96878;-72
2023/07/29 06:12:27;;;;;;;;;5.40;4.40;;;;;26.67;100.00;98259.63;6258308;27;98570;-74
2023/07/29 06:15:32;;;;;;;;;6.00;6.00;;;;;26.85;100.00;98272.09;6273040;27;96970;-73
2023/07/29 06:18:35;;;;;;;;;6.00;5.00;;;;;27.01;100.00;98266.72;6271592;27;96362;-73
2023/07/29 06:21:38;;;;;;;;;6.00;5.40;;;;;27.09;100.00;98272.16;6249673;27;97064;-72
2023/07/29 06:24:41;;;;;;;;;6.20;6.00;;;;;27.20;100.00;98266.16;6259654;27;97351;-73
2023/07/29 06:27:45;;;;;;;;;6.50;6.50;;;;;27.38;100.00;98270.31;6255717;27;96306;-72
2023/07/29 06:30:49;;;;;;;;;7.00;7.00;;;;;27.51;100.00;98271.97;6253001;27;96410;-74
2023/07/29 06:33:54;;;;;;;;;4.00;4.00;;;;;27.70;100.00;98266.63;6260669;27;96715;-73
2023/07/29 06:36:57;;;;;;;;;5.00;4.80;;;;;27.74;100.00;98266.72;6258042;27;98454;-72
2023/07/29 06:40:01;;;;;;;;;4.80;4.80;;;;;27.68;100.00;98268.91;6267919;27;98480;-73
2023/07/29 06:43:04;;;;;;;;;4.60;4.60;;;;;27.87;100.00;98263.56;6258548;27;96773;-74
2023/07/29 06:46:09;;;;;;;;;5.00;5.00;;;;;27.96;100.00;98244.84;6272801;27;96905;-73
2023/07/29 06:49:12;;;;;;;;;5.00;5.00;;;;;28.23;100.00;98271.00;6266124;27;96332;-74
2023/07/29 06:52:15;;;;;;;;;5.60;5.00;;;;;28.21;100.00;98278.03;6259172;27;96880;-73
2023/07/29 06:55:18;;;;;;;;;5.00;5.00;;;;;28.34;100.00;98274.09;6256258;27;96640;-73
2023/07/29 06:58:22;;;;;;;;;7.00;7.00;;;;;28.35;100.00;98273.72;6253695;27;97070;-74
2023/07/29 07:01:26;;;;;;;;;5.80;5.20;;;;;28.58;100.00;98279.50;6269457;27;97690;-73
2023/07/29 07:04:29;;;;;;;;;6.00;5.00;;;;;28.87;100.00;98277.53;6265148;27;95983;-73
2023/07/29 07:07:33;;;;;;;;;4.25;4.00;;;;;29.02;100.00;98274.75;6267432;27;96527;-73
2023/07/29 07:10:36;;;;;;;;;4.20;4.20;;;;;29.08;100.00;98278.06;6265246;27;96357;-73
2023/07/29 07:13:40;;;;;;;;;4.00;4.00;;;;;29.29;100.00;98275.81;6262918;27;98029;-73
2023/07/29 07:16:44;;;;;;;;;5.00;5.00;;;;;29.50;100.00;98276.38;6268429;27;97308;-73
2023/07/29 07:19:48;;;;;;;;;5.50;5.50;;;;;29.69;100.00;98272.81;6255756;27;96404;-73
2023/07/29 07:22:51;;;;;;;;;4.00;4.00;;;;;29.81;100.00;98271.91;6269569;27;97017;-73
2023/07/29 07:25:55;;;;;;;;;4.00;3.75;;;;;29.96;100.00;98265.50;6263607;27;96309;-73
2023/07/29 07:28:58;;;;;;;;;3.20;3.20;;;;;30.06;100.00;98264.94;6263261;27;97144;-73
2023/07/29 07:32:03;;;;;;;;;3.80;3.80;;;;;30.13;100.00;98265.91;6262822;27;97118;-73
2023/07/29 07:35:06;;;;;;;;;4.00;3.75;;;;;30.30;100.00;98267.41;6277309;27;96972;-72
2023/07/29 07:38:10;;;;;;;;;5.00;5.00;;;;;30.39;100.00;98264.44;6268564;27;96452;-73
2023/07/29 07:41:13;;;;;;;;;4.00;4.00;;;;;30.38;100.00;98274.75;6266384;27;96378;-75
2023/07/29 07:44:17;;;;;;;;;5.40;5.40;;;;;30.54;100.00;98275.47;6268251;27;98623;-73
2023/07/29 07:47:23;;;;;;;;;5.25;5.00;;;;;30.60;100.00;98236.22;6271498;27;96165;-73
2023/07/29 07:50:30;;;;;;;;;3.00;3.00;;;;;31.13;100.00;98263.06;6276790;27;97266;-74
2023/07/29 07:53:33;;;;;;;;;3.80;3.80;;;;;31.49;100.00;98244.13;6282172;27;96609;-73
2023/07/29 07:56:36;;;;;;;;;4.00;4.00;;;;;31.90;100.00;98247.94;6268095;27;97260;-73
2023/07/29 07:59:40;;;;;;;;;5.00;5.00;;;;;32.10;100.00;98255.81;6275669;27;96881;-73
2023/07/29 08:02:45;;;;;;;;;6.00;6.00;;;;;32.33;100.00;98257.69;6285530;27;100206;-73
2023/07/29 08:05:49;;;;;;;;;4.67;4.00;;;;;32.37;100.00;98253.75;6265869;27;96589;-73
2023/07/29 08:08:53;;;;;;;;;4.40;4.40;;;;;32.17;100.00;98255.91;6270255;27;96729;-73
2023/07/29 08:11:56;;;;;;;;;4.67;4.67;;;;;32.11;100.00;98264.97;6268691;27;98489;-73
2023/07/29 08:15:00;;;;;;;;;4.00;4.00;;;;;32.03;100.00;98261.25;6281703;27;96960;-73
2023/07/29 08:18:04;;;;;;;;;5.00;5.00;;;;;31.83;100.00;98260.59;6273029;27;97472;-73
2023/07/29 08:21:07;;;;;;;;;3.40;3.40;;;;;32.05;100.00;98261.69;6256494;28;96502;-73
2023/07/29 08:24:10;;;;;;;;;5.00;5.00;;;;;32.33;100.00;98255.69;6270537;27;96377;-72
2023/07/29 08:27:14;;;;;;;;;5.00;5.00;;;;;32.50;100.00;98251.50;6270187;27;96284;-73
2023/07/29 08:30:18;;;;;;;;;2.20;2.00;;;;;32.71;100.00;98256.53;6260858;27;98903;-72
2023/07/29 08:33:23;;;;;;;;;4.00;4.00;;;;;32.89;100.00;98255.50;6270213;27;96590;-76
2023/07/29 08:36:27;;;;;;;;;4.00;3.00;;;;;32.71;100.00;98260.13;6275225;27;97952;-75
2023/07/29 08:39:30;;;;;;;;;3.00;3.00;;;;;32.62;100.00;98245.66;6254084;27;96685;-76
2023/07/29 08:42:35;;;;;;;;;4.00;4.00;;;;;32.92;100.00;98249.16;6263425;27;98904;-76
2023/07/29 08:45:41;;;;;;;;;4.00;3.80;;;;;33.16;100.00;98241.41;6268662;27;96309;-76
2023/07/29 08:48:47;;;;;;;;;2.00;2.00;;;;;33.43;100.00;98242.81;6267977;27;96500;-76
2023/07/29 08:51:51;;;;;;;;;5.00;4.50;;;;;33.83;100.00;98237.13;6258507;27;98121;-76
2023/07/29 08:54:54;;;;;;;;;4.40;4.40;;;;;34.40;100.00;98239.41;6260819;27;99024;-76
2023/07/29 08:57:58;;;;;;;;;3.00;3.00;;;;;34.58;100.00;98226.25;6261170;27;97303;-76
2023/07/29 09:01:02;;;;;;;;;3.40;2.40;;;;;34.79;100.00;98229.13;6255386;27;97091;-77
2023/07/29 09:04:07;;;;;;;;;4.20;4.20;;;;;35.19;100.00;98213.94;6245690;27;98498;-76
2023/07/29 09:07:11;;;;;;;;;4.00;4.00;;;;;35.74;100.00;98231.09;6245016;27;96502;-77
2023/07/29 09:10:15;;;;;;;;;5.00;5.00;;;;;35.95;92.31;98224.66;6256429;27;96634;-77
2023/07/29 09:13:18;;;;;;;;;4.00;3.20;;;;;35.76;89.53;98220.31;6261022;27;98451;-76
2023/07/29 09:16:22;;;;;;;;;2.80;2.80;;;;;35.52;87.55;98216.31;6254785;27;96876;-76
2023/07/29 09:19:28;;;;;;;;;4.00;4.00;;;;;35.54;92.48;98201.88;6250870;27;97535;-77
2023/07/29 09:22:32;;;;;;;;;2.20;2.20;;;;;35.42;90.70;98211.53;6257467;27;97154;-76
2023/07/29 09:25:35;;;;;;;;;3.20;3.00;;;;;35.32;91.17;98209.53;6241484;27;96887;-75
2023/07/29 09:28:40;;;;;;;;;5.00;4.00;;;;;35.33;92.49;98213.16;6246842;27;98465;-76
2023/07/29 09:31:43;;;;;;;;;3.00;3.00;;;;;35.47;85.47;98213.94;6256157;27;96981;-76
2023/07/29 09:34:48;;;;;;;;;4.40;3.00;;;;;35.60;91.46;98212.28;6245361;27;97296;-76
2023/07/29 09:37:52;;;;;;;;;2.00;2.00;;;;;35.63;90.06;98205.06;6250846;27;96289;-76
2023/07/29 09:40:57;;;;;;;;;3.00;2.00;;;;;35.53;83.78;98215.09;6264480;27;96332;-77
2023/07/29 09:44:03;;;;;;;;;5.00;4.00;;;;;35.63;81.42;98205.06;6242576;27;98927;-76
2023/07/29 09:47:06;;;;;;;;;3.60;3.00;;;;;35.80;82.48;98203.44;6247586;27;97192;-74
2023/07/29 09:50:11;;;;;;;;;3.00;3.00;;;;;35.80;81.00;98209.88;6250405;27;96414;-77
2023/07/29 09:53:15;;;;;;;;;3.00;3.00;;;;;36.07;81.87;98201.72;6254477;27;98523;-76
2023/07/29 09:56:24;;;;;;;;;3.00;2.50;;;;;36.21;79.51;98196.13;6262648;27;96326;-76
2023/07/29 09:59:27;;;;;;;;;3.00;3.00;;;;;36.37;73.43;98198.41;6250301;27;96756;-76
2023/07/29 10:02:31;;;;;;;;;3.00;2.00;;;;;36.38;76.49;98191.59;6266969;27;98830;-76
2023/07/29 10:05:36;;;;;;;;;3.50;3.50;;;;;36.20;75.61;98188.91;6250289;27;97144;-76
2023/07/29 10:08:40;;;;;;;;;4.00;3.00;;;;;36.43;83.34;98183.53;6262387;27;96884;-76
2023/07/29 10:11:44;;;;;;;;;3.00;3.00;;;;;36.17;75.31;98183.28;6263138;27;96297;-76
2023/07/29 10:14:49;;;;;;;;;2.00;2.00;;;;;35.96;77.37;98176.56;6262209;27;96764;-75
2023/07/29 10:17:52;;;;;;;;;4.00;2.40;;;;;35.67;82.85;98185.47;6253868;27;96336;-76
2023/07/29 10:20:59;;;;;;;;;3.40;3.40;;;;;34.84;86.37;98195.13;6246816;27;97456;-76
2023/07/29 10:24:05;;;;;;;;;2.20;2.20;;;;;34.65;91.71;98190.66;6256290;27;96761;-76
2023/07/29 10:27:13;;;;;;;;;2.00;2.00;;;;;34.18;91.71;98202.13;6262406;27;96206;-75
2023/07/29 10:30:16;;;;;;;;;4.00;4.00;;;;;33.86;96.84;98202.81;6249234;27;97880;-75
2023/07/29 10:33:20;;;;;;;;;3.00;3.00;;;;;33.35;98.66;98200.06;6246298;27;98995;-76
2023/07/29 10:36:27;;;;;;;;;4.00;3.20;;;;;33.09;100.00;98194.66;6249424;27;96619;-75
2023/07/29 10:39:39;;;;;;;;;4.00;4.00;;;;;33.04;100.00;98200.59;6253057;27;96945;-76
2023/07/29 10:43:01;;;;;;;;;4.00;4.00;;;;;33.02;100.00;98194.59;6248094;27;96394;-76
2023/07/29 10:46:17;;;;;;;;;4.75;4.00;;;;;33.19;100.00;98210.72;6248961;27;97296;-75
2023/07/29 10:49:24;;;;;;;;;4.00;4.00;;;;;32.93;100.00;98213.69;6248616;27;99037;-74
2023/07/29 10:52:42;;;;;;;;;4.20;3.80;;;;;33.05;100.00;98203.00;6244278;27;97203;-75
2023/07/29 10:55:45;;;;;;;;;4.20;4.00;;;;;33.24;100.00;98209.56;6252101;27;98564;-76
2023/07/29 10:58:48;;;;;;;;;3.80;3.80;;;;;33.50;100.00;98196.19;6254739;27;96404;-74
2023/07/29 11:01:55;;;;;;;;;5.40;5.40;;;;;33.69;100.00;98191.50;6257192;27;96366;-75
2023/07/29 11:04:59;;;;;;;;;4.00;4.00;;;;;34.09;100.00;98185.69;6257107;27;98985;-75
2023/07/29 11:08:17;;;;;;;;;4.60;4.00;;;;;34.20;100.00;98197.78;6245564;27;96523;-76
2023/07/29 11:11:20;;;;;;;;;4.00;3.50;;;;;34.29;100.00;98178.59;6245564;27;96801;-76
2023/07/29 11:14:25;;;;;;;;;5.00;5.00;;;;;34.19;100.00;98176.56;6251098;27;96849;-77
2023/07/29 11:17:30;;;;;;;;;5.00;5.00;;;;;34.00;100.00;98178.88;6253484;27;96391;-77
2023/07/29 11:20:34;;;;;;;;;4.25;3.00;;;;;33.98;100.00;98170.06;6246097;27;97059;-76
2023/07/29 11:23:39;;;;;;;;;5.00;5.00;;;;;33.62;100.00;98171.88;6249852;27;96604;-77
2023/07/29 11:26:47;;;;;;;;;5.00;5.00;;;;;33.56;100.00;98173.44;6233195;27;96935;-77
2023/07/29 11:29:51;;;;;;;;;5.75;5.75;;;;;33.51;100.00;98166.22;6253581;27;96382;-77
2023/07/29 11:32:55;;;;;;;;;5.60;5.00;;;;;33.36;100.00;98165.34;6258054;27;96869;-77
2023/07/29 11:35:58;;;;;;;;;3.00;3.00;;;;;33.02;100.00;98184.25;6247586;27;96282;-74
2023/07/29 11:39:11;;;;;;;;;4.00;3.00;;;;;32.48;100.00;98142.25;6241339;27;99127;-76
2023/07/29 11:42:15;;;;;;;;;3.60;3.60;;;;;32.52;100.00;98163.44;6226741;27;98960;-76
2023/07/29 11:45:20;;;;;;;;;4.00;4.00;;;;;32.31;100.00;98173.56;6242063;27;96560;-76
2023/07/29 11:48:32;;;;;;;;;4.00;3.80;;;;;32.37;100.00;98178.41;6255239;27;96587;-76
2023/07/29 11:51:36;;;;;;;;;3.00;3.00;;;;;32.78;100.00;98168.09;6243295;27;98611;-75
2023/07/29 11:54:41;;;;;;;;;2.00;2.00;;;;;33.13;100.00;98173.16;6251971;27;96346;-75
2023/07/29 11:57:44;;;;;;;;;2.75;2.75;;;;;32.91;100.00;98163.78;6236787;27;98520;-76
2023/07/29 12:00:48;;;;;;;;;6.00;5.40;;;;;33.05;100.00;98177.06;6246145;27;96420;-77
2023/07/29 12:03:52;;;;;;;;;4.00;4.00;;;;;32.96;100.00;98182.19;6260734;27;96711;-75
2023/07/29 12:06:56;;;;;;;;;4.00;4.00;;;;;33.09;100.00;98175.91;6251401;27;96344;-76
2023/07/29 12:10:03;;;;;;;;;5.00;5.00;;;;;33.42;100.00;98165.78;6255212;27;97244;-75
2023/07/29 12:13:08;;;;;;;;;3.00;3.00;;;;;33.52;100.00;98170.63;6248882;27;96289;-75
2023/07/29 12:16:17;;;;;;;;;5.00;4.60;;;;;34.03;100.00;98156.50;6257036;27;96525;-75
2023/07/29 12:19:22;;;;;;;;;5.00;5.00;;;;;34.52;100.00;98160.66;6251363;27;96548;-76
2023/07/29 12:22:25;;;;;;;;;4.00;4.00;;;;;34.56;100.00;98156.66;6260235;27;96623;-77
2023/07/29 12:25:30;;;;;;;;;3.00;3.00;;;;;34.75;100.00;98158.28;6248779;27;96377;-77
2023/07/29 12:28:33;;;;;;;;;5.00;4.00;;;;;34.92;100.00;98162.31;6246389;27;96904;-76
2023/07/29 12:31:38;;;;;;;;;5.40;5.40;;;;;35.02;100.00;98151.09;6263227;27;96486;-75
2023/07/29 12:34:42;;;;;;;;;3.00;3.00;;;;;35.40;95.19;98146.66;6254521;27;97417;-75
2023/07/29 12:37:45;;;;;;;;;4.00;3.00;;;;;35.43;95.05;98153.47;6263922;27;96258;-75
2023/07/29 12:40:50;;;;;;;;;3.00;3.00;;;;;35.64;98.48;98144.97;6264220;27;97729;-76
2023/07/29 12:43:53;;;;;;;;;4.00;4.00;;;;;35.74;94.95;98140.56;6266571;27;96399;-75
2023/07/29 12:46:56;;;;;;;;;4.00;4.00;;;;;35.96;93.40;98140.09;6239926;27;98382;-75
2023/07/29 12:50:00;;;;;;;;;4.40;4.00;;;;;36.02;92.74;98140.44;6257530;27;96258;-75
2023/07/29 12:53:03;;;;;;;;;1.60;1.60;;;;;36.25;91.45;98132.34;6268871;27;98392;-75
2023/07/29 12:56:08;;;;;;;;;3.00;3.00;;;;;36.35;91.60;98139.09;6266259;27;96197;-75
2023/07/29 12:59:11;;;;;;;;;5.50;5.00;;;;;36.71;91.61;98139.66;6256262;27;97797;-75
2023/07/29 13:02:14;;;;;;;;;5.40;5.00;;;;;36.99;97.09;98121.75;6256555;27;96481;-76
2023/07/29 13:05:18;;;;;;;;;3.80;3.20;;;;;37.02;89.92;98112.50;6251117;27;98449;-76
2023/07/29 13:08:22;;;;;;;;;5.00;5.00;;;;;36.92;88.15;98124.63;6260634;27;96583;-75
2023/07/29 13:11:27;;;;;;;;;5.80;5.00;;;;;36.62;88.61;98131.69;6253435;27;98542;-75
2023/07/29 13:14:30;;;;;;;;;3.40;3.40;;;;;36.38;90.19;98133.44;6262072;27;96658;-76
2023/07/29 13:17:34;;;;;;;;;5.00;5.00;;;;;36.27;89.55;98117.88;6262474;27;96840;-75
2023/07/29 13:20:38;;;;;;;;;5.00;4.40;;;;;36.39;92.17;98109.78;6254604;27;98069;-76
2023/07/29 13:23:41;;;;;;;;;3.00;3.00;;;;;36.24;94.54;98107.47;6253396;27;96782;-75
2023/07/29 13:26:46;;;;;;;;;5.00;4.00;;;;;35.96;92.23;98100.81;6242042;27;97376;-72
2023/07/29 13:29:49;;;;;;;;;5.40;5.40;;;;;35.83;97.68;98082.03;6260678;27;96481;-71
2023/07/29 13:32:52;;;;;;;;;5.00;5.00;;;;;36.21;97.12;98097.09;6252857;27;96715;-70
2023/07/29 13:35:55;;;;;;;;;3.00;3.00;;;;;36.18;90.29;98095.88;6255418;27;98341;-70
2023/07/29 13:38:58;;;;;;;;;3.00;3.00;;;;;35.99;88.48;98097.19;6258535;27;97053;-70
2023/07/29 13:42:03;;;;;;;;;3.80;3.80;;;;;35.49;95.13;98099.38;6251444;27;96885;-70
2023/07/29 13:45:08;;;;;;;;;5.00;5.00;;;;;35.00;93.96;98103.06;6250808;27;96615;-70
2023/07/29 13:48:11;;;;;;;;;5.00;5.00;;;;;34.71;96.91;98099.50;6231842;27;96617;-70
2023/07/29 13:51:15;;;;;;;;;3.00;3.00;;;;;34.11;99.73;98102.16;6248145;27;97119;-70
2023/07/29 13:54:18;;;;;;;;;3.20;3.20;;;;;33.56;100.00;98095.19;6247410;27;99741;-70
2023/07/29 13:57:22;;;;;;;;;3.75;3.75;;;;;33.16;100.00;98102.56;6253111;27;96454;-70
2023/07/29 14:00:26;;;;;;;;;3.00;3.00;;;;;32.85;100.00;98101.13;6235615;27;96995;-70
2023/07/29 14:03:29;;;;;;;;;5.00;4.00;;;;;32.55;100.00;98104.03;6250363;27;96622;-70
2023/07/29 14:06:33;;;;;;;;;4.00;4.00;;;;;32.11;100.00;98109.59;6262189;27;96906;-70
2023/07/29 14:09:40;;;;;;;;;5.00;5.00;;;;;31.89;100.00;98095.78;6267325;27;96185;-70
2023/07/29 14:12:45;;;;;;;;;4.60;4.60;;;;;31.71;100.00;98090.84;6260091;27;97483;-70
2023/07/29 14:15:48;;;;;;;;;4.00;4.00;;;;;31.53;100.00;98100.09;6264658;27;96882;-70
2023/07/29 14:18:51;;;;;;;;;4.00;4.00;;;;;31.25;100.00;98108.91;6259674;27;96310;-70